Time;durP1;ratioP1;P1;durP2;ratioP2;P2;SDS_P1;SDS_P2;PMS_P1;PMS_P2;Temp;Humidity;BMP_temperature;BMP_pressure;BME280_temperature;BME280_humidity;BME280_pressure;Samples;Min_cycle;Max_cycle;Signal;HPM_P1;HPM_P2
2021/11/16 00:02:34;;;;;;;149.05;84.40;;;77.60;2227.20;;;;;;5007719;28;20038;-80
2021/11/16 00:05:38;;;;;;;141.38;83.57;;;77.50;2227.20;;;;;;5002910;28;20041;-80
2021/11/16 00:08:21;;;;;;;146.23;81.75;;;77.60;2227.20;;;;;;5014639;28;20089;-80
2021/11/16 00:11:20;;;;;;;193.50;106.07;;;77.40;2227.20;;;;;;5005719;28;20044;-80
2021/11/16 00:16:56;;;;;;;185.75;100.55;;;77.50;2227.20;;;;;;5024465;28;20490;-80
2021/11/16 00:19:35;;;;;;;227.07;123.78;;;77.60;2227.20;;;;;;4995523;28;20030;-80
2021/11/16 00:22:19;;;;;;;220.77;117.93;;;77.50;2227.20;;;;;;5019101;28;20022;-80
2021/11/16 00:28:50;;;;;;;185.38;101.38;;;77.50;2227.20;;;;;;4990559;28;20050;-80
2021/11/16 00:31:18;;;;;;;168.90;92.13;;;77.40;2227.20;;;;;;4972965;28;20042;-80
2021/11/16 00:34:32;;;;;;;165.73;92.65;;;77.30;2227.20;;;;;;4996847;28;20126;-79
2021/11/16 00:37:07;;;;;;;166.35;90.57;;;77.40;2227.20;;;;;;4931800;28;20569;-80
2021/11/16 00:39:52;;;;;;;167.15;94.80;;;77.50;2227.20;;;;;;4983097;28;20033;-79
2021/11/16 00:42:40;;;;;;;198.05;110.38;;;77.50;2227.20;;;;;;4981512;28;20159;-80
2021/11/16 00:45:38;;;;;;;165.35;94.82;;;77.60;2227.20;;;;;;4967241;28;20042;-80
2021/11/16 00:48:59;;;;;;;196.73;110.30;;;102.40;2227.20;;;;;;4977777;28;20071;-80
2021/11/16 00:52:19;;;;;;;157.13;89.95;;;77.70;2227.20;;;;;;4993005;28;20054;-80
2021/11/16 00:55:13;;;;;;;190.68;109.93;;;77.30;2227.20;;;;;;4972939;28;20042;-80
2021/11/16 00:58:22;;;;;;;189.98;104.93;;;77.30;2227.20;;;;;;5008003;28;20044;-80
2021/11/16 01:01:14;;;;;;;194.30;104.45;;;102.60;2227.20;;;;;;4988955;28;20038;-80
2021/11/16 01:04:07;;;;;;;155.65;83.93;;;77.50;2227.20;;;;;;5008161;28;20023;-80
2021/11/16 01:07:35;;;;;;;154.48;84.03;;;77.30;2227.20;;;;;;5008324;28;20026;-80
2021/11/16 01:10:54;;;;;;;201.85;101.65;;;77.30;2227.20;;;;;;5000513;28;20030;-80
2021/11/16 01:13:25;;;;;;;164.30;87.40;;;77.00;2227.20;;;;;;4969585;28;20026;-79
2021/11/16 01:15:52;;;;;;;189.60;97.35;;;76.90;2227.20;;;;;;4944929;29;20031;-78
2021/11/16 01:18:21;;;;;;;164.25;89.07;;;76.90;2227.20;;;;;;4944682;29;20028;-79
2021/11/16 01:20:54;;;;;;;157.57;88.30;;;77.20;2227.20;;;;;;4963721;29;20033;-80
2021/11/16 01:24:28;;;;;;;162.98;86.50;;;77.20;2227.20;;;;;;4925868;29;20066;-81
2021/11/16 01:27:58;;;;;;;165.95;87.93;;;77.40;2227.20;;;;;;4945653;28;20023;-82
2021/11/16 01:38:00;;;;;;;;;;;77.50;2227.20;;;;;;4955321;29;20059;-81
2021/11/16 01:41:40;;;;;;;165.05;86.55;;;77.50;2227.20;;;;;;4936838;29;19906;-80
2021/11/16 01:48:34;;;;;;;148.98;79.50;;;76.90;2227.20;;;;;;4955452;29;20042;-81
2021/11/16 01:51:43;;;;;;;148.98;82.50;;;77.00;2227.20;;;;;;4918863;29;20017;-80
2021/11/16 01:54:56;;;;;;;197.48;104.15;;;77.10;2227.20;;;;;;4927266;29;20040;-80
2021/11/16 01:58:09;;;;;;;168.00;93.43;;;77.00;2227.20;;;;;;4884022;29;20075;-81
2021/11/16 02:04:49;;;;;;;150.35;80.53;;;77.00;2227.20;;;;;;4900923;29;20134;-81
2021/11/16 02:07:58;;;;;;;162.57;88.03;;;77.30;2227.20;;;;;;4883026;29;20530;-81
2021/11/16 02:11:24;;;;;;;171.73;89.82;;;77.00;2227.20;;;;;;4863946;29;20037;-81
2021/11/16 02:14:51;;;;;;;165.15;90.72;;;76.90;2227.20;;;;;;4876228;29;20133;-81
2021/11/16 02:21:55;;;;;;;150.45;82.93;;;77.20;2227.20;;;;;;4896517;29;20063;-81
2021/11/16 02:35:37;;;;;;;147.93;82.45;;;77.20;2227.20;;;;;;4899348;29;20075;-81
2021/11/16 02:38:43;;;;;;;174.30;95.43;;;77.40;2227.20;;;;;;4900767;29;20029;-81
2021/11/16 02:41:51;;;;;;;172.20;96.38;;;77.30;2227.20;;;;;;4917328;29;20039;-81
2021/11/16 02:45:11;;;;;;;209.00;108.63;;;77.30;2227.20;;;;;;4909345;29;20077;-81
2021/11/16 02:48:39;;;;;;;201.40;109.03;;;77.30;2227.20;;;;;;4923961;29;20031;-81
2021/11/16 02:51:45;;;;;;;173.93;95.82;;;77.40;2227.20;;;;;;4923356;29;20035;-81
2021/11/16 02:59:08;;;;;;;152.15;88.05;;;77.30;2227.20;;;;;;4924133;29;20100;-81
2021/11/16 03:02:39;;;;;;;182.05;98.22;;;77.40;2227.20;;;;;;4863338;29;20046;-81
2021/11/16 03:05:56;;;;;;;228.80;114.22;;;77.40;2227.20;;;;;;4896372;29;20041;-81
2021/11/16 03:09:10;;;;;;;235.95;115.60;;;77.60;2227.20;;;;;;4866755;29;20041;-81
2021/11/16 03:12:23;;;;;;;211.85;110.00;;;77.70;2227.20;;;;;;4904506;29;20025;-80
2021/11/16 03:16:05;;;;;;;230.52;123.43;;;77.70;2227.20;;;;;;4919568;29;20540;-81
2021/11/16 03:19:38;;;;;;;218.38;118.75;;;77.60;2227.20;;;;;;4871299;29;20025;-81
2021/11/16 03:26:22;;;;;;;188.40;105.90;;;77.60;2227.20;;;;;;4827217;29;20050;-81
2021/11/16 03:29:50;;;;;;;182.82;94.10;;;77.50;2227.20;;;;;;4795029;29;20059;-81
2021/11/16 03:36:05;;;;;;;175.52;84.25;;;102.40;2227.20;;;;;;4782455;29;20090;-80
2021/11/16 03:39:16;;;;;;;192.02;97.13;;;102.60;2227.20;;;;;;4790972;30;20039;-81
2021/11/16 03:42:47;;;;;;;188.98;96.05;;;102.60;2227.20;;;;;;4811726;29;20129;-81
2021/11/16 03:46:03;;;;;;;175.65;92.78;;;102.60;2227.20;;;;;;4827796;29;20080;-81
2021/11/16 03:49:18;;;;;;;177.35;89.65;;;102.80;2227.20;;;;;;4902998;29;20041;-81
2021/11/16 03:59:39;;;;;;;179.30;99.25;;;102.50;2227.20;;;;;;4865913;29;20028;-81
2021/11/16 04:03:02;;;;;;;188.63;99.80;;;102.60;2227.20;;;;;;4851770;29;20014;-81
2021/11/16 04:06:28;;;;;;;148.45;79.13;;;102.80;2227.20;;;;;;4854355;29;20046;-81
2021/11/16 04:17:40;;;;;;;141.52;78.05;;;102.90;2227.20;;;;;;4775740;30;20039;-81
2021/11/16 04:20:58;;;;;;;139.00;78.20;;;102.90;2227.20;;;;;;4777010;29;20031;-81
2021/11/16 04:27:24;;;;;;;141.63;79.88;;;103.00;2227.20;;;;;;4769358;30;20047;-81
2021/11/16 04:41:00;;;;;;;;;;;103.10;2227.20;;;;;;4939475;29;20088;-81
2021/11/16 04:44:08;;;;;;;161.15;95.47;;;103.20;2227.20;;;;;;4939547;29;20372;-81
2021/11/16 04:47:57;;;;;;;151.45;88.40;;;103.30;2227.20;;;;;;4961739;28;20011;-82
2021/11/16 05:05:41;;;;;;;204.82;119.50;;;103.30;2227.20;;;;;;4934645;28;20025;-80
2021/11/16 05:19:36;;;;;;;155.85;90.72;;;128.30;2252.80;;;;;;4902838;29;20213;-79
2021/11/16 05:23:00;;;;;;;118.45;70.68;;;128.20;2252.80;;;;;;4889880;29;20025;-81
2021/11/16 05:29:51;;;;;;;72.15;43.88;;;128.30;2252.80;;;;;;4902653;29;20044;-79
2021/11/16 05:33:22;;;;;;;64.60;41.30;;;128.40;2252.80;;;;;;4905637;29;20013;-79
2021/11/16 06:04:12;;;;;;;138.98;89.78;;;153.60;2252.80;;;;;;4893443;29;20063;-80
2021/11/16 06:14:57;;;;;;;228.98;122.75;;;153.70;2252.80;;;;;;5039064;28;20057;-81
2021/11/16 06:18:12;;;;;;;278.95;160.07;;;153.80;2252.80;;;;;;4997699;28;20121;-81
2021/11/16 06:21:36;;;;;;;210.38;122.93;;;153.80;2252.80;;;;;;4983971;28;20039;-82
2021/11/16 06:35:24;;;;;;;189.10;127.32;;;154.00;2252.80;;;;;;4939434;29;20108;-81
2021/11/16 06:42:13;;;;;;;171.65;115.63;;;154.10;2252.80;;;;;;4956990;29;20071;-81
2021/11/16 06:45:51;;;;;;;161.60;107.97;;;154.20;2252.80;;;;;;4918707;29;20036;-81
2021/11/16 06:52:00;;;;;;;167.95;108.88;;;154.30;2252.80;;;;;;5003475;26;20054;-82
2021/11/16 06:58:42;;;;;;;123.93;84.55;;;154.50;2252.80;;;;;;5004382;28;20050;-81
2021/11/16 07:02:34;;;;;;;108.90;68.22;;;179.20;2252.80;;;;;;4998451;28;20026;-82
2021/11/16 07:12:47;;;;;;;69.35;46.45;;;179.40;2252.80;;;;;;4941948;29;20039;-82
2021/11/16 07:33:14;;;;;;;126.32;73.53;;;179.90;2252.80;;;;;;5015153;28;20048;-83
2021/11/16 07:36:47;;;;;;;116.13;74.13;;;179.90;2252.80;;;;;;4935574;29;20167;-83
2021/11/16 07:57:04;;;;;;;126.00;77.55;;;205.00;2252.80;;;;;;4935092;29;20079;-86
2021/11/16 08:03:25;;;;;;;102.80;63.38;;;205.20;2252.80;;;;;;4950796;28;20042;-86
2021/11/16 08:11:22;;;;;;;64.00;41.20;;;205.30;2252.80;;;;;;4997171;28;20034;-87
2021/11/16 08:17:10;;;;;;;45.90;33.08;;;205.40;2252.80;;;;;;5013924;28;20032;-85
2021/11/16 08:19:39;;;;;;;53.70;33.15;;;205.50;2252.80;;;;;;5014168;28;20383;-85
2021/11/16 08:22:11;;;;;;;52.30;34.58;;;205.60;2252.80;;;;;;4996590;28;20075;-86
2021/11/16 08:24:41;;;;;;;43.25;29.45;;;205.60;2252.80;;;;;;4996461;28;20547;-89
2021/11/16 08:27:38;;;;;;;43.75;26.92;;;205.70;2252.80;;;;;;4996738;28;20033;-88
2021/11/16 08:30:14;;;;;;;66.38;37.78;;;205.70;2252.80;;;;;;4995310;28;20070;-88
2021/11/16 08:32:43;;;;;;;89.28;49.65;;;205.70;2252.80;;;;;;4996820;28;20153;-85
2021/11/16 08:35:21;;;;;;;50.85;32.55;;;230.40;2252.80;;;;;;4996651;28;20431;-81
2021/11/16 08:37:48;;;;;;;37.22;26.63;;;230.40;2252.80;;;;;;4994190;28;20487;-86
2021/11/16 08:40:22;;;;;;;48.33;30.50;;;230.50;2252.80;;;;;;4995730;28;20033;-84
2021/11/16 08:43:17;;;;;;;52.00;32.53;;;230.60;2252.80;;;;;;4995664;28;20125;-80
2021/11/16 09:01:35;;;;;;;40.55;27.35;;;230.70;2252.80;;;;;;5712796;23;20192;-83
2021/11/16 09:04:00;;;;;;;53.25;30.20;;;230.90;2252.80;;;;;;4999942;28;20023;-83
2021/11/16 09:06:30;;;;;;;52.25;32.47;;;231.00;2252.80;;;;;;5002274;28;20034;-84
2021/11/16 09:12:28;;;;;;;47.15;31.73;;;230.80;2252.80;;;;;;5102899;23;20084;-84
2021/11/16 09:15:34;;;;;;;50.40;33.83;;;231.10;2252.80;;;;;;5024417;28;20022;-83
2021/11/16 09:19:00;;;;;;;46.63;29.75;;;231.20;2252.80;;;;;;5041225;28;20044;-85
2021/11/16 09:45:41;;;;;;;48.88;33.47;;;256.40;2252.80;;;;;;4937038;29;20059;-85
2021/11/16 09:52:01;;;;;;;30.00;22.02;;;256.60;2252.80;;;;;;4957804;29;20082;-82
2021/11/16 09:55:20;;;;;;;36.15;22.80;;;256.70;2252.80;;;;;;4932837;29;20122;-81
2021/11/16 10:02:33;;;;;;;31.15;21.67;;;256.90;2252.80;;;;;;4955855;29;20141;-81
2021/11/16 10:09:19;;;;;;;37.90;26.05;;;281.60;2278.40;;;;;;4926306;29;20063;-81
2021/11/16 10:12:24;;;;;;;31.95;21.10;;;281.60;2278.40;;;;;;4943050;29;20039;-82
2021/11/16 10:19:38;;;;;;;31.48;22.35;;;281.70;2278.40;;;;;;4922484;29;20049;-84
2021/11/16 10:22:46;;;;;;;29.98;20.67;;;281.70;2278.40;;;;;;4922976;29;20065;-84
2021/11/16 10:25:19;;;;;;;28.77;20.42;;;281.70;2278.40;;;;;;4898165;29;20118;-81
2021/11/16 10:27:59;;;;;;;30.10;18.80;;;282.10;2278.40;;;;;;4893631;29;20029;-81
2021/11/16 10:30:30;;;;;;;28.77;19.00;;;282.30;2278.40;;;;;;4899376;29;20040;-80
2021/11/16 10:33:33;;;;;;;;;;;282.50;2278.40;;;;;;4883590;29;20053;-83
2021/11/16 10:37:16;;;;;;;25.83;16.75;;;307.20;2304.00;;;;;;4866088;29;19927;-81
2021/11/16 11:05:36;;;;;;;26.15;18.95;;;282.50;2278.40;;;;;;4939992;29;20092;-82
2021/11/16 11:16:36;;;;;;;30.80;21.77;;;282.30;2278.40;;;;;;4941163;29;20023;-81
2021/11/16 11:20:10;;;;;;;37.15;22.67;;;282.30;2278.40;;;;;;4975650;28;20027;-82
2021/11/16 11:27:42;;;;;;;65.18;38.78;;;282.40;2278.40;;;;;;4989387;28;20069;-82
2021/11/16 11:33:55;;;;;;;33.22;23.02;;;282.50;2278.40;;;;;;4969086;28;20281;-82
2021/11/16 11:36:31;;;;;;;39.72;26.73;;;282.50;2278.40;;;;;;4955467;28;20039;-81
2021/11/16 11:39:21;;;;;;;42.00;26.42;;;282.50;2278.40;;;;;;5027396;28;20030;-81
2021/11/16 11:41:57;;;;;;;42.35;25.85;;;282.50;2278.40;;;;;;5028266;28;20029;-81
2021/11/16 11:48:00;;;;;;;37.38;25.52;;;282.50;2278.40;;;;;;4970760;29;20034;-80
2021/11/16 11:50:38;;;;;;;39.53;26.58;;;282.50;2278.40;;;;;;4975384;28;20376;-79
2021/11/16 11:53:21;;;;;;;57.65;41.00;;;282.50;2278.40;;;;;;5028776;28;20077;-80
2021/11/16 11:56:09;;;;;;;46.05;30.65;;;307.20;2304.00;;;;;;5032823;28;20052;-80
2021/11/16 11:58:39;;;;;;;53.20;39.28;;;307.20;2304.00;;;;;;5029608;28;20049;-80
2021/11/16 12:01:13;;;;;;;81.40;52.88;;;307.20;2304.00;;;;;;5050064;28;20033;-81
2021/11/16 12:04:18;;;;;;;53.42;37.75;;;307.20;2304.00;;;;;;5022433;28;20009;-81
2021/11/16 12:06:53;;;;;;;45.78;32.60;;;307.30;2304.00;;;;;;5050149;28;20033;-81
2021/11/16 12:09:38;;;;;;;40.38;30.75;;;307.30;2304.00;;;;;;5029504;28;20036;-81
2021/11/16 12:12:04;;;;;;;37.50;25.23;;;307.30;2304.00;;;;;;5049477;28;20025;-81
2021/11/16 12:15:11;;;;;;;38.53;26.20;;;307.30;2304.00;;;;;;5035234;28;20025;-82
2021/11/16 12:18:10;;;;;;;47.42;30.73;;;307.30;2304.00;;;;;;5043682;28;20036;-81
2021/11/16 12:21:34;;;;;;;51.65;30.63;;;307.40;2304.00;;;;;;5052562;28;20037;-80
2021/11/16 12:24:36;;;;;;;56.25;34.17;;;307.40;2304.00;;;;;;5035549;28;20088;-81
2021/11/16 12:27:06;;;;;;;51.97;31.27;;;307.40;2304.00;;;;;;5037368;28;20036;-81
2021/11/16 12:29:44;;;;;;;44.85;29.90;;;307.50;2304.00;;;;;;5033991;28;20017;-81
2021/11/16 12:32:35;;;;;;;45.30;29.05;;;307.60;2304.00;;;;;;5052767;28;20106;-81
2021/11/16 12:35:47;;;;;;;44.28;32.20;;;307.60;2304.00;;;;;;5052086;28;20028;-81
2021/11/16 12:38:16;;;;;;;31.52;25.55;;;307.70;2304.00;;;;;;5032086;28;20464;-81
2021/11/16 14:56:33;;;;;;;73.55;51.50;;;282.30;2278.40;;;;;;5744039;23;20042;-79
2021/11/16 14:59:23;;;;;;;67.80;46.60;;;282.20;2278.40;;;;;;4980063;28;20074;-81
2021/11/16 15:02:06;;;;;;;55.40;36.95;;;282.20;2278.40;;;;;;4997424;28;20035;-81
2021/11/16 15:04:40;;;;;;;66.60;44.97;;;282.10;2278.40;;;;;;4959265;28;20026;-81
2021/11/16 15:07:13;;;;;;;60.17;42.75;;;282.00;2278.40;;;;;;4981410;28;20018;-81
2021/11/16 15:10:01;;;;;;;;;;;282.00;2278.40;;;;;;4982828;28;20027;-80
2021/11/16 15:12:46;;;;;;;334.60;159.43;;;281.90;2278.40;;;;;;4983033;28;19906;-81
2021/11/16 15:15:14;;;;;;;435.88;220.20;;;281.90;2278.40;;;;;;4981099;28;20027;-82
2021/11/16 15:17:57;;;;;;;206.40;114.15;;;281.80;2278.40;;;;;;4979439;28;20033;-81
2021/11/16 15:20:41;;;;;;;221.35;123.63;;;281.80;2278.40;;;;;;4961002;28;20094;-81
2021/11/16 15:23:20;;;;;;;288.27;169.18;;;281.70;2278.40;;;;;;4995549;28;20023;-83
2021/11/16 15:26:13;;;;;;;183.95;113.65;;;281.70;2278.40;;;;;;4982352;28;20011;-84
2021/11/16 15:28:42;;;;;;;189.43;118.47;;;281.70;2278.40;;;;;;4976579;28;20058;-81
2021/11/16 15:31:11;;;;;;;183.77;118.25;;;281.70;2278.40;;;;;;4975607;28;20031;-81
2021/11/16 15:33:49;;;;;;;130.88;84.05;;;281.70;2278.40;;;;;;4975882;28;20031;-81
2021/11/16 15:36:42;;;;;;;142.88;86.50;;;256.90;2252.80;;;;;;4982270;28;20030;-83
2021/11/16 15:42:36;;;;;;;76.32;48.42;;;256.80;2252.80;;;;;;4999886;28;20087;-83
2021/11/16 15:46:06;;;;;;;83.88;48.78;;;256.80;2252.80;;;;;;4983178;28;20062;-84
2021/11/16 15:59:02;;;;;;;71.38;47.65;;;256.70;2252.80;;;;;;4866299;29;20045;-83
2021/11/16 16:02:53;;;;;;;82.05;55.33;;;256.70;2252.80;;;;;;4850002;29;20062;-82
2021/11/16 16:12:31;;;;;;;74.70;49.17;;;256.70;2252.80;;;;;;4834995;29;20068;-80
2021/11/16 16:14:57;;;;;;;61.95;41.05;;;256.60;2252.80;;;;;;4877113;29;20034;-79
2021/11/16 16:17:35;;;;;;;73.53;45.17;;;256.60;2252.80;;;;;;4929876;29;20034;-80
2021/11/16 16:20:06;;;;;;;68.57;44.60;;;256.50;2252.80;;;;;;4950951;29;20035;-79
2021/11/16 16:22:44;;;;;;;59.10;40.75;;;256.60;2252.80;;;;;;4964205;29;20135;-81
2021/11/16 16:25:10;;;;;;;37.13;25.30;;;256.50;2252.80;;;;;;4965318;29;20090;-80
2021/11/16 16:27:38;;;;;;;46.97;32.28;;;256.50;2252.80;;;;;;4968625;29;20473;-80
2021/11/16 16:30:09;;;;;;;44.60;30.25;;;256.50;2252.80;;;;;;4967355;29;20031;-80
2021/11/16 16:32:35;;;;;;;56.60;35.55;;;256.50;2252.80;;;;;;4967174;29;20038;-80
2021/11/16 16:35:03;;;;;;;78.13;43.67;;;281.60;2278.40;;;;;;4966542;29;20035;-80
2021/11/16 16:37:29;;;;;;;101.53;56.42;;;256.50;2252.80;;;;;;4966159;29;20122;-79
2021/11/16 16:39:55;;;;;;;98.07;56.03;;;256.50;2252.80;;;;;;4971539;29;20039;-80
2021/11/16 16:42:21;;;;;;;86.25;50.72;;;256.50;2252.80;;;;;;4972110;29;20027;-80
2021/11/16 16:44:49;;;;;;;102.57;66.85;;;256.60;2252.80;;;;;;4970999;29;20497;-80
2021/11/16 16:47:18;;;;;;;123.85;85.93;;;256.50;2252.80;;;;;;4973158;29;20022;-80
2021/11/16 16:49:45;;;;;;;97.82;69.68;;;256.50;2252.80;;;;;;4969178;29;20023;-80
2021/11/16 16:52:12;;;;;;;83.97;58.17;;;256.50;2252.80;;;;;;4968561;28;20388;-80
2021/11/16 16:54:39;;;;;;;73.97;50.03;;;256.50;2252.80;;;;;;4967514;29;20027;-81
2021/11/16 16:57:05;;;;;;;84.57;56.25;;;256.10;2252.80;;;;;;4961864;29;20055;-81
2021/11/16 16:59:32;;;;;;;84.72;58.88;;;256.60;2252.80;;;;;;4961374;29;20019;-81
2021/11/16 17:02:12;;;;;;;81.30;56.80;;;256.50;2252.80;;;;;;4970937;29;20052;-81
2021/11/16 17:05:09;;;;;;;90.40;58.60;;;256.50;2252.80;;;;;;4972107;29;20012;-82
2021/11/16 17:08:17;;;;;;;282.30;161.23;;;256.40;2252.80;;;;;;4974048;29;20023;-81
2021/11/16 17:17:27;;;;;;;169.80;104.47;;;256.20;2252.80;;;;;;4911996;29;20145;-80
2021/11/16 17:19:55;;;;;;;179.48;119.50;;;256.30;2252.80;;;;;;4909358;29;20024;-82
2021/11/16 17:22:24;;;;;;;179.52;111.20;;;256.30;2252.80;;;;;;4955218;29;20043;-81
2021/11/16 17:24:54;;;;;;;156.05;102.93;;;256.60;2252.80;;;;;;4969558;29;20031;-81
2021/11/16 17:27:21;;;;;;;427.48;200.73;;;256.20;2252.80;;;;;;4968939;28;20034;-80
2021/11/16 17:29:49;;;;;;;267.80;141.98;;;256.20;2252.80;;;;;;4971176;29;20365;-81
2021/11/16 17:32:34;;;;;;;267.83;134.82;;;256.20;2252.80;;;;;;4956271;29;20051;-80
2021/11/16 17:35:06;;;;;;;222.15;111.60;;;256.30;2252.80;;;;;;4972767;29;20040;-82
2021/11/16 17:38:34;;;;;;;239.10;126.27;;;256.20;2252.80;;;;;;4977195;29;20035;-81
2021/11/16 17:44:57;;;;;;;131.38;84.45;;;256.30;2252.80;;;;;;4938892;29;20143;-81
2021/11/16 17:47:30;;;;;;;153.45;102.00;;;281.90;2278.40;;;;;;4902943;29;20036;-81
2021/11/16 17:54:17;;;;;;;177.93;114.10;;;256.20;2252.80;;;;;;4547482;23;20046;-81
2021/11/16 18:04:35;;;;;;;168.70;115.70;;;256.20;2252.80;;;;;;5002173;28;20102;-83
2021/11/16 18:11:07;;;;;;;280.42;171.15;;;256.10;2252.80;;;;;;4998926;28;20054;-81
2021/11/16 18:13:44;;;;;;;187.80;117.10;;;256.10;2252.80;;;;;;4981610;28;20027;-83
2021/11/16 18:16:55;;;;;;;177.85;113.50;;;256.00;2252.80;;;;;;4994226;28;20031;-81
2021/11/16 18:20:13;;;;;;;159.02;102.25;;;256.00;2252.80;;;;;;4991874;28;20023;-80
2021/11/16 18:22:41;;;;;;;146.25;96.20;;;256.00;2252.80;;;;;;4972890;28;20022;-80
2021/11/16 18:25:29;;;;;;;141.00;93.88;;;231.20;2252.80;;;;;;4996040;28;20472;-82
2021/11/16 18:28:45;;;;;;;139.98;96.50;;;231.30;2252.80;;;;;;4979766;28;20092;-83
2021/11/16 18:31:47;;;;;;;142.55;88.40;;;231.30;2252.80;;;;;;4937390;29;20039;-83
2021/11/16 18:35:16;;;;;;;150.82;89.63;;;231.30;2252.80;;;;;;4939698;29;20036;-82
2021/11/16 18:38:21;;;;;;;164.63;96.70;;;231.30;2252.80;;;;;;4917928;29;20065;-82
2021/11/16 18:41:08;;;;;;;148.55;97.60;;;231.30;2252.80;;;;;;4909676;29;20052;-81
2021/11/16 18:43:41;;;;;;;165.80;100.85;;;231.30;2252.80;;;;;;4910631;29;20047;-81
2021/11/16 18:46:14;;;;;;;270.60;178.00;;;256.00;2252.80;;;;;;4962991;28;20031;-82
2021/11/16 18:49:19;;;;;;;251.93;162.48;;;231.30;2252.80;;;;;;4981745;28;20022;-83
2021/11/16 18:52:33;;;;;;;293.33;201.77;;;231.30;2252.80;;;;;;4956933;29;20055;-81
2021/11/16 18:55:55;;;;;;;237.18;155.75;;;231.30;2252.80;;;;;;4942684;29;20020;-83
2021/11/16 18:59:19;;;;;;;164.75;108.63;;;231.30;2252.80;;;;;;4943659;29;20100;-84
2021/11/16 19:26:48;;;;;;;135.93;91.35;;;231.20;2252.80;;;;;;5050149;23;20058;-84
2021/11/16 19:49:40;;;;;;;154.48;110.25;;;231.20;2252.80;;;;;;4900390;29;20068;-82
2021/11/16 19:56:41;;;;;;;117.15;81.07;;;231.20;2252.80;;;;;;4901239;29;20170;-84
2021/11/16 19:59:43;;;;;;;119.13;84.68;;;231.20;2252.80;;;;;;4808238;30;20069;-82
2021/11/16 20:06:01;;;;;;;122.07;80.07;;;231.30;2252.80;;;;;;4737086;30;20108;-82
2021/11/16 20:15:38;;;;;;;111.47;77.18;;;231.20;2252.80;;;;;;4990257;28;20061;-79
2021/11/16 20:18:06;;;;;;;109.82;74.10;;;231.20;2252.80;;;;;;4971924;28;20046;-80
2021/11/16 20:20:32;;;;;;;99.68;69.30;;;231.20;2252.80;;;;;;4970317;28;20475;-79
2021/11/16 20:22:58;;;;;;;98.13;68.05;;;231.20;2252.80;;;;;;4972928;28;20027;-79
2021/11/16 20:25:26;;;;;;;99.40;70.38;;;230.60;2252.80;;;;;;4974598;28;20033;-80
2021/11/16 20:27:55;;;;;;;102.18;69.47;;;231.30;2252.80;;;;;;4970675;28;20031;-80
2021/11/16 20:30:24;;;;;;;91.65;63.85;;;231.20;2252.80;;;;;;4969121;28;20085;-80
2021/11/16 20:32:54;;;;;;;94.05;62.22;;;231.30;2252.80;;;;;;4967993;28;20034;-81
2021/11/16 20:35:22;;;;;;;90.28;61.92;;;231.30;2252.80;;;;;;4966762;28;20031;-80
2021/11/16 20:38:02;;;;;;;104.20;69.35;;;231.30;2252.80;;;;;;4967354;28;20539;-80
2021/11/16 20:40:36;;;;;;;92.60;61.15;;;231.30;2252.80;;;;;;4967526;28;20023;-80
2021/11/16 20:59:26;;;;;;;103.43;74.70;;;256.00;2252.80;;;;;;4965300;29;20045;-82
2021/11/16 21:02:06;;;;;;;109.88;73.15;;;231.30;2252.80;;;;;;4960375;29;20031;-80
2021/11/16 21:04:33;;;;;;;91.30;64.22;;;231.30;2252.80;;;;;;4972032;29;20035;-81
2021/11/16 21:07:03;;;;;;;96.70;63.53;;;231.30;2252.80;;;;;;4955932;29;20030;-81
2021/11/16 21:09:29;;;;;;;94.30;63.88;;;256.00;2252.80;;;;;;4956578;29;20015;-82
2021/11/16 21:11:58;;;;;;;89.07;62.08;;;231.30;2252.80;;;;;;4957584;29;20126;-81
2021/11/16 21:17:52;;;;;;;101.82;71.10;;;256.00;2252.80;;;;;;4934850;29;20090;-81
2021/11/16 21:20:31;;;;;;;120.30;78.70;;;231.30;2252.80;;;;;;4930378;29;20052;-82
2021/11/16 21:23:08;;;;;;;137.73;95.72;;;231.30;2252.80;;;;;;4916420;29;20036;-81
2021/11/16 21:26:18;;;;;;;134.98;90.88;;;231.20;2252.80;;;;;;4929838;29;20502;-81
2021/11/16 21:29:28;;;;;;;129.38;87.82;;;231.20;2252.80;;;;;;4933187;29;20060;-83
2021/11/16 21:32:54;;;;;;;123.80;78.35;;;231.10;2252.80;;;;;;4925300;29;20070;-81
2021/11/16 21:35:43;;;;;;;86.05;61.63;;;231.10;2252.80;;;;;;4924019;29;20048;-86
2021/11/16 21:38:14;;;;;;;99.50;63.35;;;231.00;2252.80;;;;;;4912142;29;20048;-81
2021/11/16 21:40:41;;;;;;;81.70;57.42;;;231.00;2252.80;;;;;;4933661;29;20031;-80
2021/11/16 21:43:09;;;;;;;74.63;50.13;;;231.00;2252.80;;;;;;4933480;29;20035;-80
2021/11/16 21:45:43;;;;;;;91.35;61.85;;;231.00;2252.80;;;;;;4950767;29;20053;-81
2021/11/16 21:48:10;;;;;;;74.60;48.83;;;230.90;2252.80;;;;;;4965576;28;20078;-81
2021/11/16 21:51:16;;;;;;;77.50;50.67;;;231.10;2252.80;;;;;;5018120;23;20055;-85
2021/11/16 21:53:44;;;;;;;94.95;62.78;;;230.80;2252.80;;;;;;4994282;28;20034;-83
2021/11/16 21:56:12;;;;;;;87.97;54.55;;;230.70;2252.80;;;;;;4978533;28;20090;-82
2021/11/16 21:58:49;;;;;;;96.25;56.78;;;230.60;2252.80;;;;;;4978302;28;20027;-83
2021/11/16 22:02:02;;;;;;;96.47;56.63;;;230.60;2252.80;;;;;;4961686;28;20031;-82
2021/11/16 22:05:34;;;;;;;102.07;62.17;;;230.50;2252.80;;;;;;4937164;29;20036;-83
2021/11/16 22:11:44;;;;;;;121.32;69.20;;;230.40;2252.80;;;;;;4932907;29;20061;-85
2021/11/16 22:14:48;;;;;;;129.23;77.03;;;230.40;2252.80;;;;;;4933318;29;20033;-83
2021/11/16 22:17:58;;;;;;;136.05;82.90;;;179.60;2252.80;;;;;;5031143;23;20090;-83
2021/11/16 22:20:50;;;;;;;90.10;56.00;;;230.40;2252.80;;;;;;4922802;29;20048;-81
2021/11/16 22:23:26;;;;;;;72.20;49.03;;;230.40;2252.80;;;;;;4922849;29;20043;-81
2021/11/16 22:26:00;;;;;;;63.38;42.25;;;230.40;2252.80;;;;;;4962083;29;20031;-82
2021/11/16 22:28:39;;;;;;;59.92;40.28;;;230.40;2252.80;;;;;;4965297;28;20034;-81
2021/11/16 22:42:17;;;;;;;70.72;45.42;;;230.40;2252.80;;;;;;4980796;28;20058;-81
2021/11/16 22:45:06;;;;;;;;;;;230.40;2252.80;;;;;;4937302;29;20059;-81
2021/11/16 22:47:58;;;;;;;66.30;42.85;;;230.40;2252.80;;;;;;4961252;29;19914;-81
2021/11/16 22:51:18;;;;;;;55.58;38.42;;;205.70;2252.80;;;;;;4917756;29;20076;-81
2021/11/16 22:54:39;;;;;;;53.85;36.47;;;205.70;2252.80;;;;;;4907923;29;20041;-81
2021/11/16 22:57:24;;;;;;;55.40;40.03;;;205.70;2252.80;;;;;;4915614;29;20125;-82
2021/11/16 23:01:21;;;;;;;73.68;46.40;;;205.60;2252.80;;;;;;4891581;29;20021;-80
